Time;durP1;ratioP1;P1;durP2;ratioP2;P2;SDS_P1;SDS_P2;PMS_P1;PMS_P2;Temp;Humidity;BMP_temperature;BMP_pressure;BME280_temperature;BME280_humidity;BME280_pressure;Samples;Min_cycle;Max_cycle;Signal;HPM_P1;HPM_P2
2024/01/21 00:00:11;;;;;;;24.20;16.05;;;-1.90;99.90;;;;;;4931618;29;20224;-88
2024/01/21 00:02:36;;;;;;;22.10;14.90;;;-1.70;99.90;;;;;;4938550;29;20196;-88
2024/01/21 00:05:03;;;;;;;20.20;14.37;;;-1.80;99.90;;;;;;4943197;29;20743;-88
2024/01/21 00:07:28;;;;;;;22.65;14.55;;;-1.80;99.90;;;;;;4943193;29;20229;-87
2024/01/21 00:09:54;;;;;;;28.57;16.00;;;-1.70;99.90;;;;;;4932562;29;20567;-87
2024/01/21 00:12:19;;;;;;;25.83;16.20;;;-1.70;99.90;;;;;;4944729;29;20199;-87
2024/01/21 00:14:45;;;;;;;21.27;14.40;;;-2.00;99.90;;;;;;4943732;29;20206;-87
2024/01/21 00:17:11;;;;;;;26.33;16.37;;;-2.20;99.90;;;;;;4937644;29;20699;-88
2024/01/21 00:19:36;;;;;;;21.42;15.27;;;-1.90;99.90;;;;;;4943559;29;20194;-90
2024/01/21 00:22:02;;;;;;;21.40;15.90;;;-2.20;99.90;;;;;;4942261;29;20197;-87
2024/01/21 00:24:28;;;;;;;23.40;14.93;;;;;;;;;;4925136;29;20216;-88
2024/01/21 00:26:54;;;;;;;20.42;15.55;;;-2.10;99.90;;;;;;4926296;29;20483;-87
2024/01/21 00:29:19;;;;;;;21.70;15.93;;;-2.00;99.90;;;;;;4940488;29;20196;-89
2024/01/21 00:31:45;;;;;;;28.80;16.50;;;-2.40;99.90;;;;;;4934182;29;20245;-88
2024/01/21 00:34:10;;;;;;;24.57;15.07;;;-2.30;99.90;;;;;;4935863;29;20178;-89
2024/01/21 00:36:36;;;;;;;22.53;14.37;;;-2.20;99.90;;;;;;4945729;29;20201;-89
2024/01/21 00:39:01;;;;;;;21.63;15.07;;;-2.20;99.90;;;;;;4939527;29;20224;-89
2024/01/21 00:41:27;;;;;;;23.40;15.53;;;-1.90;99.90;;;;;;4942493;29;20207;-88
2024/01/21 00:43:52;;;;;;;22.17;14.40;;;-2.40;99.90;;;;;;4944301;29;20226;-89
2024/01/21 00:46:18;;;;;;;24.43;16.13;;;-2.20;99.90;;;;;;4939806;29;20214;-89
2024/01/21 00:48:43;;;;;;;25.10;15.43;;;-2.40;99.90;;;;;;4946741;29;20197;-88
2024/01/21 00:51:09;;;;;;;25.07;14.80;;;-2.20;99.90;;;;;;4944420;29;20216;-89
2024/01/21 00:53:34;;;;;;;23.03;13.67;;;-2.10;99.90;;;;;;4943556;29;20763;-89
2024/01/21 00:56:00;;;;;;;22.83;15.67;;;-2.50;99.90;;;;;;4944554;29;20274;-88
2024/01/21 00:58:26;;;;;;;27.03;16.40;;;-2.50;99.90;;;;;;4941078;29;20181;-88
2024/01/21 01:00:51;;;;;;;22.33;14.43;;;-2.50;99.90;;;;;;4938317;29;20660;-88
2024/01/21 01:03:17;;;;;;;23.13;15.20;;;-2.30;99.90;;;;;;4949375;29;20209;-88
2024/01/21 01:05:42;;;;;;;20.83;14.70;;;-2.40;99.90;;;;;;4950476;29;20215;-88
2024/01/21 01:08:08;;;;;;;21.40;14.87;;;-2.50;99.90;;;;;;4945471;29;20217;-88
2024/01/21 01:10:33;;;;;;;24.13;14.43;;;-2.30;99.90;;;;;;4944945;29;20560;-88
2024/01/21 01:12:59;;;;;;;19.70;13.63;;;-2.10;99.90;;;;;;4939175;29;20572;-89
2024/01/21 01:15:24;;;;;;;20.07;13.23;;;-2.50;99.90;;;;;;4937290;29;20206;-89
2024/01/21 01:17:51;;;;;;;18.80;13.37;;;-2.30;99.90;;;;;;4936231;29;20190;-87
2024/01/21 01:20:17;;;;;;;20.88;13.63;;;-2.50;99.90;;;;;;4945632;29;20195;-89
2024/01/21 01:22:42;;;;;;;18.00;13.43;;;-2.50;99.90;;;;;;4936895;29;20527;-88
2024/01/21 01:25:08;;;;;;;22.40;13.23;;;-2.70;99.90;;;;;;4943041;29;20348;-88
2024/01/21 01:27:34;;;;;;;19.50;13.13;;;-2.70;99.90;;;;;;4952565;28;20216;-87
2024/01/21 01:30:01;;;;;;;17.13;12.53;;;-2.70;99.90;;;;;;4956411;28;20210;-87
2024/01/21 01:32:26;;;;;;;21.58;13.40;;;-3.10;99.90;;;;;;4937801;29;20187;-87
2024/01/21 01:34:54;;;;;;;16.97;12.00;;;-2.50;99.90;;;;;;4943970;29;20266;-87
2024/01/21 01:37:21;;;;;;;20.80;15.25;;;-2.40;99.90;;;;;;4937450;29;20187;-87
2024/01/21 01:39:47;;;;;;;19.33;12.90;;;-3.30;99.90;;;;;;4942293;29;20192;-87
2024/01/21 01:42:12;;;;;;;21.53;13.93;;;-2.40;99.90;;;;;;4941752;29;20210;-87
2024/01/21 01:44:40;;;;;;;16.80;11.67;;;-2.50;99.90;;;;;;4936091;29;20214;-89
2024/01/21 01:47:07;;;;;;;17.10;12.25;;;-2.60;99.90;;;;;;4939959;29;20215;-87
2024/01/21 01:49:32;;;;;;;21.50;12.27;;;-2.60;99.90;;;;;;4939273;29;20191;-87
2024/01/21 01:51:58;;;;;;;17.40;12.67;;;-2.50;99.90;;;;;;4936724;29;20192;-87
2024/01/21 01:54:28;;;;;;;15.77;10.50;;;-2.60;99.90;;;;;;4934510;29;20210;-89
2024/01/21 01:56:54;;;;;;;17.70;12.20;;;-2.90;99.90;;;;;;4938796;29;20659;-88
2024/01/21 01:59:20;;;;;;;20.47;13.23;;;-2.30;99.90;;;;;;4940571;29;20241;-88
2024/01/21 02:01:46;;;;;;;16.95;10.90;;;-3.00;99.90;;;;;;4947473;28;20215;-88
2024/01/21 02:04:11;;;;;;;16.33;10.33;;;-2.60;99.90;;;;;;4934780;29;20219;-88
2024/01/21 02:06:38;;;;;;;16.83;11.10;;;-2.80;99.90;;;;;;4937057;29;20208;-88
2024/01/21 02:09:04;;;;;;;15.90;10.85;;;-2.90;99.90;;;;;;4945679;29;20615;-89
2024/01/21 02:11:29;;;;;;;14.90;10.57;;;-2.80;99.90;;;;;;4942509;29;20195;-89
2024/01/21 02:13:55;;;;;;;17.83;11.33;;;;;;;;;;4940463;29;20225;-88
2024/01/21 02:16:21;;;;;;;18.30;10.30;;;-2.90;99.90;;;;;;4939644;29;20194;-88
2024/01/21 02:18:49;;;;;;;16.27;10.73;;;-2.90;99.90;;;;;;4943800;29;20310;-87
2024/01/21 02:21:15;;;;;;;15.80;10.40;;;-2.90;99.90;;;;;;4954159;29;20193;-87
2024/01/21 02:23:40;;;;;;;14.23;9.97;;;-2.50;99.90;;;;;;4954023;28;20563;-89
2024/01/21 02:26:06;;;;;;;14.67;9.67;;;-2.90;99.90;;;;;;4936870;29;20237;-87
2024/01/21 02:28:31;;;;;;;19.10;12.17;;;-3.10;99.90;;;;;;4942492;29;20240;-88
2024/01/21 02:30:57;;;;;;;14.60;9.40;;;-3.10;99.90;;;;;;4942642;29;20201;-88
2024/01/21 02:33:22;;;;;;;15.23;10.00;;;-2.80;99.90;;;;;;4925808;29;20191;-88
2024/01/21 02:35:48;;;;;;;13.70;8.40;;;-2.90;99.90;;;;;;4935298;29;20229;-88
2024/01/21 02:38:13;;;;;;;12.10;10.27;;;-2.90;99.90;;;;;;4936426;29;20591;-87
2024/01/21 02:40:40;;;;;;;13.77;9.30;;;-2.60;99.90;;;;;;4938331;29;20187;-87
2024/01/21 02:43:07;;;;;;;11.82;8.18;;;-2.80;99.90;;;;;;4934383;29;20196;-88
2024/01/21 02:45:33;;;;;;;13.10;8.48;;;-2.70;99.90;;;;;;4937739;29;20246;-87
2024/01/21 02:47:58;;;;;;;14.48;9.13;;;-2.60;99.90;;;;;;4941667;29;20267;-88
2024/01/21 02:50:24;;;;;;;14.07;9.07;;;-2.80;99.90;;;;;;4944990;29;20193;-89
2024/01/21 02:52:49;;;;;;;13.83;9.00;;;-3.20;99.90;;;;;;4947248;29;20216;-87
2024/01/21 02:55:15;;;;;;;12.03;8.43;;;-2.30;99.90;;;;;;4939171;29;20496;-88
2024/01/21 02:57:40;;;;;;;8.90;7.33;;;-2.80;99.90;;;;;;4938374;29;20187;-88
2024/01/21 03:00:07;;;;;;;12.10;7.80;;;-2.90;99.90;;;;;;4934689;29;20193;-88
2024/01/21 03:02:33;;;;;;;12.57;8.13;;;-2.60;99.90;;;;;;4939524;29;20567;-87
2024/01/21 03:04:58;;;;;;;11.40;8.17;;;-2.90;99.90;;;;;;4933180;29;20212;-89
2024/01/21 03:07:24;;;;;;;12.93;8.40;;;-2.90;99.90;;;;;;4938472;29;20214;-88
2024/01/21 03:09:50;;;;;;;14.00;10.23;;;;;;;;;;4937956;29;20183;-88
2024/01/21 03:12:15;;;;;;;11.07;8.82;;;-2.40;99.90;;;;;;4949196;28;20187;-87
2024/01/21 03:14:41;;;;;;;11.57;8.20;;;-3.20;99.90;;;;;;4933997;29;20210;-87
2024/01/21 03:17:07;;;;;;;12.30;8.43;;;-3.00;99.90;;;;;;4937721;29;20286;-89
2024/01/21 03:19:33;;;;;;;12.63;7.47;;;-2.90;99.90;;;;;;4936249;29;20255;-88
2024/01/21 03:21:59;;;;;;;11.00;7.93;;;-2.70;99.90;;;;;;4937227;29;20352;-88
2024/01/21 03:24:24;;;;;;;9.70;7.17;;;-3.20;99.90;;;;;;4934446;29;20269;-88
2024/01/21 03:26:50;;;;;;;12.20;8.30;;;-2.50;99.90;;;;;;4936533;29;20713;-88
2024/01/21 03:29:15;;;;;;;8.90;6.90;;;-2.40;99.90;;;;;;4939245;29;20188;-88
2024/01/21 03:31:41;;;;;;;9.20;7.13;;;-2.50;99.90;;;;;;4938295;29;20662;-88
2024/01/21 03:34:06;;;;;;;9.10;6.90;;;-2.50;99.90;;;;;;4936604;29;20443;-89
2024/01/21 03:36:32;;;;;;;10.43;7.13;;;-2.60;99.90;;;;;;4938722;29;20265;-88
2024/01/21 03:38:58;;;;;;;9.20;6.73;;;-2.70;99.90;;;;;;4936282;29;20194;-87
2024/01/21 03:41:23;;;;;;;8.23;6.63;;;-2.50;99.90;;;;;;4934455;29;20232;-87
2024/01/21 03:43:49;;;;;;;10.00;7.67;;;-2.80;99.90;;;;;;4933779;29;20458;-87
2024/01/21 03:46:14;;;;;;;12.97;8.10;;;-2.40;99.90;;;;;;4938993;29;20230;-87
2024/01/21 03:48:40;;;;;;;9.47;7.07;;;-2.60;99.90;;;;;;4940853;29;20199;-88
2024/01/21 03:51:08;;;;;;;10.13;6.97;;;-2.80;99.90;;;;;;4938685;29;20186;-87
2024/01/21 03:53:34;;;;;;;12.18;7.68;;;-2.90;99.90;;;;;;4933779;29;20755;-87
2024/01/21 03:55:59;;;;;;;12.13;8.00;;;-2.70;99.90;;;;;;4939711;29;20245;-88
2024/01/21 03:58:25;;;;;;;11.47;8.03;;;-3.10;99.90;;;;;;4940775;29;20194;-87
2024/01/21 04:00:50;;;;;;;9.60;6.93;;;-2.70;99.90;;;;;;4945829;29;20678;-87
2024/01/21 04:03:16;;;;;;;10.57;7.50;;;-2.70;99.90;;;;;;4938085;29;20230;-88
2024/01/21 04:05:41;;;;;;;9.80;6.80;;;-2.90;99.90;;;;;;4935239;29;20476;-86
2024/01/21 04:08:08;;;;;;;11.73;7.77;;;-2.80;99.90;;;;;;4936312;29;20313;-88
2024/01/21 04:10:34;;;;;;;10.02;7.38;;;-2.60;99.90;;;;;;4940617;29;20191;-87
2024/01/21 04:12:59;;;;;;;8.37;6.30;;;-2.80;99.90;;;;;;4935161;29;20808;-88
2024/01/21 04:15:25;;;;;;;10.10;5.90;;;-2.60;99.90;;;;;;4935142;29;20202;-88
2024/01/21 04:17:50;;;;;;;8.40;7.00;;;-2.60;99.90;;;;;;4934274;29;20199;-88
2024/01/21 04:20:16;;;;;;;10.20;6.37;;;-2.60;99.90;;;;;;4935739;29;20504;-88
2024/01/21 04:22:42;;;;;;;8.73;6.90;;;-2.50;99.90;;;;;;4935458;29;20193;-88
2024/01/21 04:25:07;;;;;;;8.30;5.67;;;-2.60;99.90;;;;;;4935140;29;20217;-88
2024/01/21 04:27:33;;;;;;;9.17;7.07;;;-2.40;99.90;;;;;;4952515;28;20294;-88
2024/01/21 04:29:58;;;;;;;10.17;6.30;;;-2.60;99.90;;;;;;4948991;29;20461;-88
2024/01/21 04:32:24;;;;;;;10.80;7.13;;;-2.50;99.90;;;;;;4943213;29;20186;-88
2024/01/21 04:34:49;;;;;;;10.20;7.37;;;-2.70;99.90;;;;;;4942877;29;20221;-88
2024/01/21 04:37:15;;;;;;;9.63;6.93;;;-2.60;99.90;;;;;;4920780;29;20262;-88
2024/01/21 04:39:40;;;;;;;9.23;6.67;;;-2.00;99.90;;;;;;4946067;29;20202;-88
2024/01/21 04:42:06;;;;;;;10.07;6.60;;;-2.60;99.90;;;;;;4975407;28;20624;-88
2024/01/21 04:44:31;;;;;;;11.80;7.60;;;-2.10;99.90;;;;;;4936983;29;20211;-88
2024/01/21 04:46:57;;;;;;;8.73;6.33;;;-2.50;99.90;;;;;;4940316;29;20237;-88
2024/01/21 04:49:22;;;;;;;8.70;7.10;;;-2.30;99.90;;;;;;4940994;29;20537;-87
2024/01/21 04:51:48;;;;;;;9.23;7.53;;;-2.40;99.90;;;;;;4939628;29;20198;-88
2024/01/21 04:54:14;;;;;;;8.73;6.73;;;-2.50;99.90;;;;;;4937547;29;20183;-87
2024/01/21 04:56:39;;;;;;;6.73;4.97;;;-3.00;99.90;;;;;;4941512;29;20195;-88
2024/01/21 04:59:05;;;;;;;9.40;6.40;;;-1.90;99.90;;;;;;4939775;29;20331;-87
2024/01/21 05:01:34;;;;;;;7.33;5.40;;;-2.40;99.90;;;;;;4941766;29;20282;-87
2024/01/21 05:03:59;;;;;;;9.70;6.18;;;-2.00;99.90;;;;;;4945319;29;20198;-87
2024/01/21 05:06:25;;;;;;;9.60;6.03;;;-2.20;99.90;;;;;;4943700;29;20198;-88
2024/01/21 05:08:51;;;;;;;6.83;5.37;;;-2.20;99.90;;;;;;4932338;29;20875;-87
2024/01/21 05:11:16;;;;;;;7.50;5.33;;;-1.70;99.90;;;;;;4940356;29;20193;-87
2024/01/21 05:13:43;;;;;;;8.20;4.97;;;-2.20;99.90;;;;;;4937471;29;20191;-88
2024/01/21 05:16:09;;;;;;;6.55;5.13;;;-2.00;99.90;;;;;;4936295;29;20209;-88
2024/01/21 05:18:37;;;;;;;5.83;4.77;;;-1.80;99.90;;;;;;4943541;29;20247;-88
2024/01/21 05:21:02;;;;;;;7.22;5.60;;;-1.90;99.90;;;;;;4937066;29;20605;-88
2024/01/21 05:23:28;;;;;;;6.83;5.03;;;-1.80;99.90;;;;;;4940933;29;20192;-88
2024/01/21 05:25:54;;;;;;;7.40;6.13;;;-1.60;99.90;;;;;;4944368;29;20207;-87
2024/01/21 05:28:20;;;;;;;6.25;4.60;;;-1.70;99.90;;;;;;4944862;29;20222;-87
2024/01/21 05:30:46;;;;;;;7.90;5.10;;;-2.00;99.90;;;;;;4939266;29;20187;-88
2024/01/21 05:33:11;;;;;;;7.93;5.20;;;-1.80;99.90;;;;;;4939375;29;20611;-88
2024/01/21 05:35:37;;;;;;;6.67;5.00;;;-1.60;99.90;;;;;;4939188;29;20697;-88
2024/01/21 05:38:02;;;;;;;7.73;5.47;;;-1.60;99.90;;;;;;4938255;29;20189;-88
2024/01/21 05:40:28;;;;;;;7.10;5.57;;;-1.70;99.90;;;;;;4940072;29;20353;-88
2024/01/21 05:42:53;;;;;;;8.03;5.43;;;-1.60;99.90;;;;;;4946907;29;20326;-88
2024/01/21 05:45:19;;;;;;;8.47;5.60;;;-2.00;99.90;;;;;;4937859;29;20214;-88
2024/01/21 05:47:45;;;;;;;7.07;5.70;;;-1.40;99.90;;;;;;4939861;29;20232;-88
2024/01/21 05:50:11;;;;;;;6.83;5.10;;;-1.30;99.90;;;;;;4947265;29;20214;-88
2024/01/21 05:52:37;;;;;;;7.03;5.13;;;-1.50;99.90;;;;;;4939564;29;20201;-88
2024/01/21 05:55:04;;;;;;;6.23;4.80;;;-1.60;99.90;;;;;;4941248;29;20529;-88
2024/01/21 05:57:29;;;;;;;4.88;4.32;;;-1.70;99.90;;;;;;4950981;29;20506;-87
2024/01/21 05:59:55;;;;;;;8.13;5.80;;;;;;;;;;4939590;29;20559;-88
2024/01/21 06:02:21;;;;;;;8.20;5.10;;;-1.70;99.90;;;;;;4940591;29;20476;-88
2024/01/21 06:04:46;;;;;;;6.10;5.23;;;-1.60;99.90;;;;;;4943458;29;20233;-87
2024/01/21 06:07:12;;;;;;;10.13;6.23;;;-1.80;99.90;;;;;;4938815;29;20264;-88
2024/01/21 06:09:38;;;;;;;7.57;6.10;;;-1.50;99.90;;;;;;4940444;29;20191;-88
2024/01/21 06:12:04;;;;;;;7.60;5.70;;;-1.70;99.90;;;;;;4940728;29;20831;-88
2024/01/21 06:14:29;;;;;;;10.60;6.50;;;-1.70;99.90;;;;;;4935120;29;20724;-88
2024/01/21 06:16:55;;;;;;;9.10;5.73;;;-1.70;99.90;;;;;;4940930;29;20851;-88
2024/01/21 06:19:20;;;;;;;6.80;5.40;;;-1.80;99.90;;;;;;4935778;29;20191;-87
2024/01/21 06:21:46;;;;;;;8.70;6.40;;;-2.30;99.90;;;;;;4933476;29;20220;-87
2024/01/21 06:24:12;;;;;;;7.27;5.40;;;-2.10;99.90;;;;;;4932104;29;20190;-87
2024/01/21 06:26:40;;;;;;;5.63;4.57;;;-1.50;99.90;;;;;;4930759;29;20274;-87
2024/01/21 06:29:09;;;;;;;6.70;5.00;;;-1.80;99.90;;;;;;4928083;29;20195;-86
2024/01/21 06:31:35;;;;;;;6.90;6.05;;;-1.90;99.90;;;;;;4940761;29;20195;-87
2024/01/21 06:34:02;;;;;;;5.93;4.90;;;-1.80;99.90;;;;;;4936243;29;20182;-87
2024/01/21 06:36:27;;;;;;;8.85;5.45;;;-2.30;99.90;;;;;;4937785;29;20471;-86
2024/01/21 06:38:53;;;;;;;8.80;5.83;;;-1.40;99.90;;;;;;4936183;29;20658;-87
2024/01/21 06:41:19;;;;;;;8.27;5.37;;;-1.90;99.90;;;;;;4935911;29;20227;-87
2024/01/21 06:43:44;;;;;;;7.60;5.10;;;-2.00;99.90;;;;;;4938597;29;20260;-88
2024/01/21 06:46:10;;;;;;;9.07;6.00;;;-1.60;99.90;;;;;;4936218;29;20208;-87
2024/01/21 06:48:36;;;;;;;7.70;6.10;;;-2.10;99.90;;;;;;4939691;29;20460;-88
2024/01/21 06:51:11;;;;;;;7.60;5.40;;;-2.30;99.90;;;;;;4939246;29;20206;-87
2024/01/21 06:53:39;;;;;;;7.78;5.28;;;-2.00;99.90;;;;;;4939493;29;20193;-88
2024/01/21 06:56:08;;;;;;;6.75;5.30;;;-2.40;99.90;;;;;;4941072;29;20298;-87
2024/01/21 06:58:34;;;;;;;7.30;5.25;;;-2.20;99.90;;;;;;4927620;29;20471;-87
2024/01/21 07:01:00;;;;;;;7.20;4.77;;;-2.30;99.90;;;;;;4946224;29;20300;-88
2024/01/21 07:03:26;;;;;;;7.03;5.43;;;-2.10;99.90;;;;;;4941657;29;20652;-87
2024/01/21 07:05:52;;;;;;;8.07;5.17;;;-2.10;99.90;;;;;;4928961;29;20206;-87
2024/01/21 07:08:18;;;;;;;9.37;5.80;;;-2.00;99.90;;;;;;4931823;29;20222;-87
2024/01/21 07:10:44;;;;;;;5.82;4.70;;;-2.00;99.90;;;;;;4932035;29;20196;-87
2024/01/21 07:13:10;;;;;;;5.60;5.10;;;-1.60;99.90;;;;;;4931151;29;20319;-86
2024/01/21 07:15:36;;;;;;;8.00;4.95;;;-1.90;99.90;;;;;;4929796;29;20301;-87
2024/01/21 07:18:01;;;;;;;7.43;5.57;;;-2.10;99.90;;;;;;4936509;29;20707;-87
2024/01/21 07:20:28;;;;;;;11.10;5.93;;;-1.20;99.90;;;;;;4929933;29;20191;-87
2024/01/21 07:22:55;;;;;;;7.25;6.10;;;-1.70;99.90;;;;;;4936584;29;20225;-86
2024/01/21 07:25:21;;;;;;;7.15;5.55;;;-1.70;99.90;;;;;;4952695;29;20189;-86
2024/01/21 07:27:47;;;;;;;7.70;5.70;;;-2.40;99.90;;;;;;4959002;29;20211;-86
2024/01/21 07:30:12;;;;;;;7.03;6.07;;;-1.70;99.90;;;;;;4932215;29;20547;-86
2024/01/21 07:32:39;;;;;;;8.17;5.40;;;-1.70;99.90;;;;;;4930834;29;20676;-85
2024/01/21 07:35:05;;;;;;;8.68;6.25;;;-1.90;99.90;;;;;;4948340;28;20469;-87
2024/01/21 07:37:30;;;;;;;9.10;6.07;;;-1.50;99.90;;;;;;4935348;29;20248;-88
2024/01/21 07:39:56;;;;;;;8.10;5.70;;;-1.70;99.90;;;;;;4934510;29;20179;-86
2024/01/21 07:42:21;;;;;;;7.43;5.70;;;-1.10;99.90;;;;;;4925048;29;20210;-88
2024/01/21 07:44:47;;;;;;;7.00;5.47;;;-1.50;99.90;;;;;;4933099;29;20205;-87
2024/01/21 07:47:13;;;;;;;9.90;6.10;;;-1.40;99.90;;;;;;4931481;29;20485;-86
2024/01/21 07:49:38;;;;;;;9.40;6.83;;;-1.50;99.90;;;;;;4944346;29;20201;-87
2024/01/21 07:52:04;;;;;;;7.10;6.00;;;-1.20;99.90;;;;;;4939398;29;20219;-88
2024/01/21 07:54:30;;;;;;;9.20;5.95;;;-1.10;99.90;;;;;;4933334;29;20213;-86
2024/01/21 07:56:55;;;;;;;6.07;5.43;;;-1.20;99.90;;;;;;4933929;29;20249;-85
2024/01/21 07:59:21;;;;;;;8.77;6.03;;;-0.90;99.90;;;;;;4938467;29;20277;-84
2024/01/21 08:01:46;;;;;;;7.13;5.80;;;-1.00;99.90;;;;;;4940636;29;20186;-84
2024/01/21 08:04:12;;;;;;;6.13;5.53;;;-0.70;99.90;;;;;;4944510;29;20189;-83
2024/01/21 08:06:37;;;;;;;7.30;6.20;;;-0.80;99.90;;;;;;4937884;29;20246;-84
2024/01/21 08:09:03;;;;;;;8.03;6.67;;;-0.10;99.90;;;;;;4944033;29;20196;-84
2024/01/21 08:11:29;;;;;;;7.00;5.38;;;-0.70;99.90;;;;;;4947578;29;20286;-84
2024/01/21 08:13:54;;;;;;;7.37;6.17;;;-0.20;99.90;;;;;;4941820;29;20242;-84
2024/01/21 08:16:20;;;;;;;7.47;6.37;;;-0.50;99.90;;;;;;4949367;29;20212;-84
2024/01/21 08:18:46;;;;;;;6.93;5.33;;;-0.10;99.90;;;;;;4951021;29;20190;-84
2024/01/21 08:21:11;;;;;;;7.17;5.73;;;0.00;99.90;;;;;;4942229;29;20679;-84
2024/01/21 08:23:40;;;;;;;7.07;5.60;;;0.60;99.90;;;;;;4944465;29;20458;-84
2024/01/21 08:26:05;;;;;;;7.47;6.05;;;0.40;99.90;;;;;;4940486;29;20213;-84
2024/01/21 08:28:31;;;;;;;9.97;6.37;;;0.50;99.90;;;;;;4937227;29;20623;-83
2024/01/21 08:30:56;;;;;;;8.47;7.07;;;-0.50;99.90;;;;;;4938829;29;20265;-87
2024/01/21 08:33:22;;;;;;;8.20;6.50;;;0.40;99.90;;;;;;4933807;29;20201;-87
2024/01/21 08:35:47;;;;;;;6.67;6.00;;;0.60;99.90;;;;;;4940390;29;20217;-85
2024/01/21 08:38:13;;;;;;;8.03;6.50;;;0.60;99.90;;;;;;4941178;29;20185;-85
2024/01/21 08:40:38;;;;;;;8.27;6.33;;;0.50;99.90;;;;;;4938556;29;20678;-85
2024/01/21 08:43:04;;;;;;;7.80;6.10;;;0.50;99.90;;;;;;4937697;29;20883;-86
2024/01/21 08:45:29;;;;;;;10.17;6.67;;;0.80;99.90;;;;;;4936590;29;20210;-85
2024/01/21 08:47:55;;;;;;;7.20;6.47;;;0.40;99.90;;;;;;4939314;29;20260;-84
2024/01/21 08:50:21;;;;;;;10.03;6.93;;;1.00;99.90;;;;;;4935721;29;20241;-84
2024/01/21 08:52:46;;;;;;;8.53;6.73;;;1.10;99.90;;;;;;4933787;29;20205;-85
2024/01/21 08:55:12;;;;;;;8.30;6.70;;;1.20;99.90;;;;;;4938900;29;20690;-83
2024/01/21 08:57:38;;;;;;;8.90;7.17;;;0.70;99.90;;;;;;4943797;29;20193;-85
2024/01/21 09:00:05;;;;;;;9.85;6.63;;;0.30;99.70;;;;;;4931676;29;20204;-85
2024/01/21 09:02:31;;;;;;;8.43;6.50;;;1.30;99.90;;;;;;4938969;29;20190;-85
2024/01/21 09:04:56;;;;;;;9.17;6.40;;;2.00;99.90;;;;;;4935510;29;20213;-85
2024/01/21 09:07:21;;;;;;;7.50;6.60;;;2.20;99.90;;;;;;4931161;29;20245;-86
2024/01/21 09:09:47;;;;;;;8.90;6.53;;;1.30;99.10;;;;;;4934576;29;20190;-85
2024/01/21 09:12:14;;;;;;;6.53;5.90;;;1.90;99.50;;;;;;4931494;29;20210;-85
2024/01/21 09:14:41;;;;;;;8.18;7.07;;;1.90;99.30;;;;;;4937569;29;20198;-85
2024/01/21 09:17:06;;;;;;;7.85;6.72;;;1.80;99.30;;;;;;4949921;29;20667;-84
2024/01/21 09:19:32;;;;;;;11.10;7.03;;;2.10;99.30;;;;;;4953308;29;20182;-84
2024/01/21 09:21:57;;;;;;;7.60;6.80;;;1.90;99.40;;;;;;4949494;29;20877;-84
2024/01/21 09:24:23;;;;;;;7.00;6.27;;;2.10;99.50;;;;;;4947405;29;20811;-84
2024/01/21 09:26:48;;;;;;;9.23;7.73;;;2.10;98.90;;;;;;4948462;29;20209;-84
2024/01/21 09:29:14;;;;;;;9.30;7.33;;;2.60;99.20;;;;;;4942960;29;20178;-85
2024/01/21 09:31:40;;;;;;;7.03;6.10;;;2.20;98.90;;;;;;4940846;29;20181;-84
2024/01/21 09:34:05;;;;;;;7.90;6.60;;;2.30;98.10;;;;;;4936441;29;20433;-84
2024/01/21 09:36:31;;;;;;;6.97;6.07;;;2.40;98.30;;;;;;4938068;29;20683;-86
2024/01/21 09:38:56;;;;;;;12.80;6.47;;;2.30;98.10;;;;;;4936523;29;20671;-85
2024/01/21 09:41:22;;;;;;;9.10;6.17;;;3.00;98.00;;;;;;4937287;29;20199;-84
2024/01/21 09:43:47;;;;;;;7.37;6.60;;;2.60;97.00;;;;;;4934821;29;20194;-86
2024/01/21 09:46:13;;;;;;;9.77;6.40;;;2.80;97.60;;;;;;4930881;29;20214;-85
2024/01/21 09:48:39;;;;;;;7.70;6.50;;;3.30;97.70;;;;;;4936714;29;20182;-85
2024/01/21 09:51:11;;;;;;;6.90;6.20;;;3.00;97.10;;;;;;4937440;29;20450;-86
2024/01/21 09:53:36;;;;;;;8.85;6.88;;;3.00;96.80;;;;;;4986454;23;20495;-84
2024/01/21 09:56:07;;;;;;;9.13;6.97;;;3.00;96.60;;;;;;4976074;28;20243;-84
2024/01/21 09:58:49;;;;;;;7.90;6.40;;;3.00;96.60;;;;;;4980110;28;20185;-84
2024/01/21 10:01:16;;;;;;;11.23;8.20;;;2.90;96.30;;;;;;4995381;28;20182;-84
2024/01/21 10:03:42;;;;;;;8.13;6.55;;;3.00;96.40;;;;;;4998303;28;20173;-84
2024/01/21 10:06:07;;;;;;;7.93;7.10;;;3.20;96.50;;;;;;4996891;28;20235;-85
2024/01/21 10:08:37;;;;;;;7.47;6.20;;;3.30;96.60;;;;;;4996892;28;20186;-84
2024/01/21 10:11:03;;;;;;;7.88;7.00;;;3.70;96.30;;;;;;4991530;28;20185;-84
2024/01/21 10:13:30;;;;;;;10.30;7.57;;;3.40;96.10;;;;;;4996496;28;20292;-85
2024/01/21 10:15:57;;;;;;;10.50;7.13;;;4.00;96.30;;;;;;4991607;28;20493;-85
2024/01/21 10:18:22;;;;;;;8.25;7.22;;;3.80;96.00;;;;;;4992664;28;20206;-85
2024/01/21 10:20:48;;;;;;;10.37;8.33;;;3.90;95.80;;;;;;4997500;28;20197;-85
2024/01/21 10:23:13;;;;;;;12.47;8.07;;;4.00;95.70;;;;;;4994193;28;20202;-85
2024/01/21 10:25:44;;;;;;;8.60;7.00;;;4.10;95.70;;;;;;4994658;28;20214;-85
2024/01/21 10:28:13;;;;;;;10.32;6.75;;;3.60;95.10;;;;;;4972748;28;20198;-84
2024/01/21 10:30:41;;;;;;;8.38;6.60;;;4.60;95.30;;;;;;4989246;28;20201;-83
2024/01/21 10:33:07;;;;;;;9.68;7.05;;;4.40;94.70;;;;;;4976837;28;20254;-84
2024/01/21 10:35:33;;;;;;;8.47;7.30;;;4.60;94.40;;;;;;4998351;28;20199;-84
2024/01/21 10:37:59;;;;;;;7.87;6.67;;;4.90;93.80;;;;;;4993990;28;20192;-84
2024/01/21 10:40:26;;;;;;;6.47;5.82;;;5.20;93.10;;;;;;4994387;28;20173;-84
2024/01/21 10:42:55;;;;;;;9.05;6.68;;;5.50;92.30;;;;;;4993936;28;20200;-83
2024/01/21 10:45:29;;;;;;;20.77;7.15;;;5.60;90.60;;;;;;4989254;28;20236;-84
2024/01/21 10:47:56;;;;;;;7.10;5.78;;;5.50;90.20;;;;;;4982579;28;20315;-84
2024/01/21 10:50:22;;;;;;;7.93;6.22;;;5.70;90.30;;;;;;4982392;28;20199;-85
2024/01/21 10:52:49;;;;;;;7.33;6.60;;;6.40;90.20;;;;;;4981939;28;20207;-85
2024/01/21 10:55:16;;;;;;;7.97;6.10;;;6.10;90.00;;;;;;4981635;28;20203;-84
2024/01/21 10:57:50;;;;;;;9.48;6.43;;;6.00;88.50;;;;;;4973781;28;20263;-85
2024/01/21 11:00:17;;;;;;;13.60;7.30;;;6.20;88.80;;;;;;4975530;28;20557;-85
2024/01/21 11:03:22;;;;;;;9.50;6.80;;;6.90;89.50;;;;;;4979534;28;20390;-85
2024/01/21 11:05:50;;;;;;;9.20;7.00;;;6.50;88.30;;;;;;4993366;28;20196;-85
2024/01/21 11:08:18;;;;;;;6.88;6.07;;;6.70;88.70;;;;;;4992092;28;20216;-85
2024/01/21 11:10:44;;;;;;;13.25;8.13;;;6.30;87.50;;;;;;4986068;28;20211;-85
2024/01/21 11:13:46;;;;;;;9.85;6.60;;;6.50;87.50;;;;;;4974436;28;20180;-85
2024/01/21 11:16:29;;;;;;;19.40;9.45;;;7.10;87.30;;;;;;4978093;28;20214;-85
2024/01/21 11:19:08;;;;;;;10.32;6.47;;;6.70;85.10;;;;;;4978084;28;20191;-85
2024/01/21 11:21:40;;;;;;;9.43;7.20;;;7.70;85.80;;;;;;4968568;28;20180;-85
2024/01/21 11:24:07;;;;;;;11.35;6.55;;;7.40;85.10;;;;;;4973600;28;20196;-86
2024/01/21 11:26:38;;;;;;;7.10;6.38;;;7.60;85.40;;;;;;4987085;28;20208;-85
2024/01/21 11:29:21;;;;;;;9.30;6.97;;;7.10;84.20;;;;;;4971556;28;20211;-86
2024/01/21 11:31:52;;;;;;;12.40;7.20;;;7.30;85.30;;;;;;4971836;28;20667;-87
2024/01/21 11:34:18;;;;;;;10.73;6.68;;;7.10;86.30;;;;;;4971306;28;20215;-86
2024/01/21 11:36:44;;;;;;;8.73;6.73;;;7.20;87.30;;;;;;4969044;28;20189;-86
2024/01/21 11:39:10;;;;;;;8.68;5.78;;;6.80;88.00;;;;;;4973346;28;20184;-86
2024/01/21 11:41:43;;;;;;;6.80;6.10;;;7.00;88.70;;;;;;4992664;28;20207;-87
2024/01/21 11:44:14;;;;;;;7.10;5.85;;;7.00;87.90;;;;;;4990383;28;20199;-87
2024/01/21 11:46:43;;;;;;;5.70;5.05;;;6.70;86.70;;;;;;4991589;28;20276;-86
2024/01/21 11:49:09;;;;;;;16.27;6.90;;;6.80;86.10;;;;;;4986706;28;20690;-86
2024/01/21 11:51:36;;;;;;;5.80;5.13;;;6.70;85.80;;;;;;4975939;28;20200;-87
2024/01/21 11:54:01;;;;;;;7.72;5.50;;;7.40;85.80;;;;;;4970358;28;20680;-86
2024/01/21 11:56:27;;;;;;;14.60;6.53;;;6.90;85.30;;;;;;4970104;28;20188;-86
2024/01/21 11:58:54;;;;;;;6.10;4.83;;;7.30;85.60;;;;;;4970412;28;20201;-87
2024/01/21 12:01:20;;;;;;;9.98;6.38;;;7.70;86.10;;;;;;4968733;28;20198;-87
2024/01/21 12:03:48;;;;;;;10.27;6.65;;;7.70;85.00;;;;;;4970246;28;20184;-87
2024/01/21 12:06:16;;;;;;;8.82;6.00;;;7.90;86.10;;;;;;4971818;28;20207;-87
2024/01/21 12:08:44;;;;;;;11.45;5.78;;;7.60;87.10;;;;;;4966323;28;20243;-87
2024/01/21 12:11:13;;;;;;;9.68;6.60;;;7.70;87.20;;;;;;4973150;28;20185;-87
2024/01/21 12:13:45;;;;;;;8.52;6.35;;;8.00;86.00;;;;;;4972460;28;20252;-87
2024/01/21 12:16:11;;;;;;;9.98;6.85;;;7.60;86.50;;;;;;4966775;28;20306;-86
2024/01/21 12:18:44;;;;;;;9.00;6.60;;;7.30;86.90;;;;;;4971619;28;20263;-87
2024/01/21 12:21:14;;;;;;;7.70;6.10;;;7.50;87.50;;;;;;4988325;28;20444;-86
2024/01/21 12:23:43;;;;;;;7.75;5.65;;;7.80;86.10;;;;;;4971959;28;20175;-86
2024/01/21 12:26:14;;;;;;;6.07;4.80;;;8.30;84.30;;;;;;4994810;28;20200;-86
2024/01/21 12:28:59;;;;;;;7.13;5.03;;;8.00;83.30;;;;;;5006399;28;20193;-86
2024/01/21 12:31:32;;;;;;;6.15;5.00;;;7.90;82.60;;;;;;4974392;28;20184;-86
2024/01/21 12:34:00;;;;;;;6.88;5.22;;;7.90;82.60;;;;;;4971833;28;20188;-86
2024/01/21 12:36:26;;;;;;;9.20;5.30;;;8.30;83.30;;;;;;4989254;28;20192;-86
2024/01/21 12:38:55;;;;;;;6.20;5.07;;;8.40;83.30;;;;;;4970362;28;20192;-85
2024/01/21 12:41:22;;;;;;;9.90;5.65;;;8.10;83.10;;;;;;4971886;28;20193;-85